KHOB/HOB METAR and TAF weather

Enter ICAO airport designator
Station Type Date Time Source
KHOB METAR 2019/12/07 04:55 UTC NOAA

KHOB 070455Z AUTO 19004KT 10SM CLR 06/00 A3033 RMK AO2


Station Type Date Time Source
KHOB Decoded METAR 2019/12/07 04:55 UTC NOAA

Hobbs / Lea County, NM, United States (KHOB) 32-41N 103-13W
Dec 06, 2019 - 11:55 PM EST / 2019.12.07 0455 UTC
Wind: from the S (190 degrees) at 5 MPH (4 KT):0
Visibility: 10 mile(s):0
Sky conditions: clear
Temperature: 42 F (6 C)
Dew Point: 32 F (0 C)
Relative Humidity: 65%
Pressure (altimeter): 30.33 in. Hg (1027 hPa)
ob: KHOB 070455Z AUTO 19004KT 10SM CLR 06/00 A3033 RMK AO2
cycle: 5

Station Type Date Time Source
KHOB TAF 2019/12/06 18:27 UTC NOAA

TAF KHOB 061725Z 0618/0718 14006KT P6SM BKN250

Example: see airport list